63°F Temp
63°F Dewpoint
100% Humidity
Temperature
8 MPH
13 KM/H
7 KTS
200°
South South
West

Wind Speed
Mostly Scattered
Clouds
Pressure 1015.92 (hPa) - 30 (in)
Visibility 2.5 (mi) - 4.0 (km)

Current Conditions
KCBK
Location 5(mi)
Metar :KCBK 140415Z AUTO 20007KT 2 1/2SM SCT008 BKN031 OVC050 17/17 A3000 RMK AO2 PWINO
Mon 13th July 22:15 pm

Airport
  Metar Aviation API Data Provided by https://www.checkwx.com/ PHP scripts by weather34.com ©2020